Terminal Aerodrome Forecast
Issued by NWS

Home | Current Version | Previous Version | Text Only | Print | Product List | Glossary On
Versions: 1 2 3 4 5 6 7 8 9 10 11 12 13 14 15 16 17
000
FTUS41 KBGM 252335
TAFRME
TAF
KRME 252335Z 2600/2624 VRB03KT P6SM BKN050
      TEMPO 2603/2607 3SM SHRA OVC025
     FM260700 VRB03KT P6SM OVC015
     FM261200 27004KT P6SM BKN025
     FM261300 29010KT P6SM FEW050=

USA.gov is the U.S. government's official web portal to all federal, state and local government web resources and services.